Time;durP1;ratioP1;P1;durP2;ratioP2;P2;SDS_P1;SDS_P2;PMS_P1;PMS_P2;Temp;Humidity;BMP_temperature;BMP_pressure;BME280_temperature;BME280_humidity;BME280_pressure;Samples;Min_cycle;Max_cycle;Signal;HPM_P1;HPM_P2
2023/02/28 00:00:44;;;;;;;;;;;;;;;-2.25;62.92;99017.44;7390414;19;20013;-73
2023/02/28 00:03:11;;;;;;;;;;;;;;;-2.22;63.20;99015.56;7386977;19;19914;-73
2023/02/28 00:05:37;;;;;;;;;;;;;;;-2.21;63.42;99019.00;7393171;19;20417;-73
2023/02/28 00:08:04;;;;;;;;;;;;;;;-2.16;63.43;99016.22;7388571;19;20263;-73
2023/02/28 00:10:31;;;;;;;;;;;;;;;-2.18;62.84;99015.47;7393873;19;20263;-73
2023/02/28 00:13:02;;;;;;;;;;;;;;;-2.16;63.82;99018.81;7388782;19;20325;-74
2023/02/28 00:15:29;;;;;;;;;;;;;;;-2.04;63.41;99010.56;7391704;19;19923;-73
2023/02/28 00:17:55;;;;;;;;;;;;;;;-2.02;63.67;99011.34;7386666;19;19928;-73
2023/02/28 00:20:22;;;;;;;;;;;;;;;-2.10;62.81;99008.22;7391416;19;19923;-73
2023/02/28 00:22:50;;;;;;;;;;;;;;;-2.07;63.53;99005.50;7391552;19;19951;-74
2023/02/28 00:25:21;;;;;;;;;;;;;;;-2.07;63.63;99013.28;7389980;19;19929;-73
2023/02/28 00:27:47;;;;;;;;;;;;;;;-2.14;64.12;99007.47;7392268;19;19925;-74
2023/02/28 00:30:15;;;;;;;;;;;;;;;-2.12;64.34;99007.44;7386318;19;19978;-73
2023/02/28 00:32:42;;;;;;;;;;;;;;;-2.11;63.78;99011.69;7388816;19;19950;-74
2023/02/28 00:35:09;;;;;;;;;;;;;;;-2.07;64.17;99013.28;7386989;19;19926;-74
2023/02/28 00:37:35;;;;;;;;;;;;;;;-2.12;63.90;99012.63;7388657;19;19922;-74
2023/02/28 00:40:05;;;;;;;;;;;;;;;-2.14;64.59;99006.63;7386849;19;19914;-74
2023/02/28 00:42:32;;;;;;;;;;;;;;;-2.16;64.65;99009.28;7388295;19;19915;-74
2023/02/28 00:44:59;;;;;;;;;;;;;;;-2.10;64.85;99011.66;7384895;19;19929;-74
2023/02/28 00:47:26;;;;;;;;;;;;;;;-2.17;65.06;99009.34;7389391;19;19933;-74
2023/02/28 00:49:54;;;;;;;;;;;;;;;-2.17;64.96;99012.78;7387895;19;19946;-73
2023/02/28 00:52:21;;;;;;;;;;;;;;;-2.24;65.26;99000.97;7382238;19;19918;-73
2023/02/28 00:54:47;;;;;;;;;;;;;;;-2.24;65.31;99000.97;7389498;19;19919;-73
2023/02/28 00:57:14;;;;;;;;;;;;;;;-2.18;65.80;99010.28;7383692;19;22214;-74
2023/02/28 00:59:41;;;;;;;;;;;;;;;-2.26;65.80;99013.16;7388830;19;19966;-74
2023/02/28 01:02:07;;;;;;;;;;;;;;;-2.20;66.38;99015.50;7386939;19;19933;-73
2023/02/28 01:04:35;;;;;;;;;;;;;;;-2.19;65.99;99008.56;7388690;19;19918;-74
2023/02/28 01:07:02;;;;;;;;;;;;;;;-2.18;65.72;99005.94;7384088;19;19983;-73
2023/02/28 01:09:29;;;;;;;;;;;;;;;-2.15;66.33;99010.97;7385906;19;20343;-74
2023/02/28 01:11:57;;;;;;;;;;;;;;;-2.16;66.66;99005.84;7383645;19;19925;-74
2023/02/28 01:14:24;;;;;;;;;;;;;;;-2.16;66.70;99003.25;7383840;19;19926;-74
2023/02/28 01:16:51;;;;;;;;;;;;;;;-2.19;66.96;99001.63;7389811;19;20286;-74
2023/02/28 01:19:18;;;;;;;;;;;;;;;-2.15;66.53;98999.78;7385098;19;19919;-74
2023/02/28 01:21:45;;;;;;;;;;;;;;;-2.15;66.87;98999.78;7386179;19;20279;-73
2023/02/28 01:24:12;;;;;;;;;;;;;;;-2.20;66.98;98997.34;7378581;19;19919;-74
2023/02/28 01:26:38;;;;;;;;;;;;;;;-2.21;67.08;98996.53;7384287;19;20421;-74
2023/02/28 01:29:06;;;;;;;;;;;;;;;-2.20;66.84;98997.34;7383207;19;20300;-74
2023/02/28 01:31:33;;;;;;;;;;;;;;;-2.16;67.04;98995.47;7392761;19;19970;-74
2023/02/28 01:33:59;;;;;;;;;;;;;;;-2.15;67.36;99002.38;7392196;19;19938;-74
2023/02/28 01:36:29;;;;;;;;;;;;;;;-2.19;67.05;99004.22;7387912;19;19910;-74
2023/02/28 01:38:55;;;;;;;;;;;;;;;-2.17;67.26;98999.00;7387249;19;19914;-74
2023/02/28 01:41:26;;;;;;;;;;;;;;;-2.11;67.54;98999.56;7386498;19;19921;-74
2023/02/28 01:43:55;;;;;;;;;;;;;;;-2.06;67.54;98997.63;7388810;19;20341;-74
2023/02/28 01:46:22;;;;;;;;;;;;;;;-2.06;67.43;98994.22;7390249;19;19923;-74
2023/02/28 01:49:00;;;;;;;;;;;;;;;-2.04;67.72;98992.41;7392818;19;19955;-74
2023/02/28 01:51:45;;;;;;;;;;;;;;;-2.09;67.65;98997.78;7393888;19;19922;-74
2023/02/28 01:54:16;;;;;;;;;;;;;;;-2.06;67.80;98997.63;7388391;19;19919;-74
2023/02/28 01:56:47;;;;;;;;;;;;;;;-2.12;67.96;98992.72;7390339;19;19921;-74
2023/02/28 01:59:14;;;;;;;;;;;;;;;-2.15;67.85;98994.59;7389262;19;19918;-74
2023/02/28 02:01:41;;;;;;;;;;;;;;;-2.20;68.25;98981.81;7389896;19;19917;-74
2023/02/28 02:04:07;;;;;;;;;;;;;;;-2.12;68.74;98986.69;7385313;19;19943;-74
2023/02/28 02:06:36;;;;;;;;;;;;;;;-2.08;68.64;98986.50;7387309;19;19918;-74
2023/02/28 02:09:03;;;;;;;;;;;;;;;-2.13;68.47;98987.56;7389533;19;19919;-74
2023/02/28 02:11:29;;;;;;;;;;;;;;;-2.13;68.62;98983.25;7389797;19;20353;-74
2023/02/28 02:14:02;;;;;;;;;;;;;;;-2.15;68.33;98979.03;7386063;19;19922;-74
2023/02/28 02:16:32;;;;;;;;;;;;;;;-2.08;68.62;98972.69;7393315;19;20236;-74
2023/02/28 02:18:58;;;;;;;;;;;;;;;-2.05;68.82;98975.19;7390965;19;19921;-74
2023/02/28 02:21:34;;;;;;;;;;;;;;;-2.01;68.76;98966.34;7394364;19;20363;-74
2023/02/28 02:24:17;;;;;;;;;;;;;;;-2.02;68.98;98970.69;7390000;19;19919;-74
2023/02/28 02:26:47;;;;;;;;;;;;;;;-1.97;69.20;98967.94;7395047;19;20263;-74
2023/02/28 02:29:17;;;;;;;;;;;;;;;-1.99;69.02;98965.38;7388007;19;19925;-73
2023/02/28 02:32:02;;;;;;;;;;;;;;;-1.90;69.42;98965.91;7392581;19;19926;-74
2023/02/28 02:34:40;;;;;;;;;;;;;;;-1.87;69.31;98969.25;7392918;19;19926;-74
2023/02/28 02:37:31;;;;;;;;;;;;;;;-1.84;69.47;98966.50;7386843;19;19919;-74
2023/02/28 02:40:04;;;;;;;;;;;;;;;-1.87;69.28;98961.47;7393842;19;20271;-73
2023/02/28 02:42:46;;;;;;;;;;;;;;;-1.86;69.40;98965.72;7391788;19;20356;-74
2023/02/28 02:45:21;;;;;;;;;;;;;;;-1.78;69.76;98960.22;7388705;19;19918;-74
2023/02/28 02:47:48;;;;;;;;;;;;;;;-1.87;69.50;98969.25;7390939;19;20255;-74
2023/02/28 02:50:17;;;;;;;;;;;;;;;-1.72;69.46;98972.94;7387216;19;19938;-74
2023/02/28 02:52:45;;;;;;;;;;;;;;;-1.79;69.32;98967.16;7389895;19;19989;-74
2023/02/28 02:55:14;;;;;;;;;;;;;;;-1.77;69.60;98962.72;7389562;19;19932;-74
2023/02/28 02:57:43;;;;;;;;;;;;;;;-1.67;69.68;98968.38;7392720;19;19918;-74
2023/02/28 03:00:10;;;;;;;;;;;;;;;-1.66;69.67;98959.72;7389161;19;19933;-74
2023/02/28 03:02:36;;;;;;;;;;;;;;;-1.62;69.66;98961.25;7388468;19;19918;-74
2023/02/28 03:05:05;;;;;;;;;;;;;;;-1.62;69.67;98957.81;7388109;19;19942;-74
2023/02/28 03:07:31;;;;;;;;;;;;;;;-1.60;70.52;98963.78;7391243;19;20378;-74
2023/02/28 03:09:58;;;;;;;;;;;;;;;-1.65;69.42;98960.56;7389903;19;20295;-74
2023/02/28 03:12:28;;;;;;;;;;;;;;;-1.56;69.87;98957.56;7389449;19;19943;-74
2023/02/28 03:14:55;;;;;;;;;;;;;;;-1.53;69.67;98967.78;7389979;19;19914;-74
2023/02/28 03:17:41;;;;;;;;;;;;;;;-1.61;69.85;98964.69;7386895;19;19923;-74
2023/02/28 03:20:12;;;;;;;;;;;;;;;-1.59;70.06;98968.06;7384838;19;19922;-75
2023/02/28 03:22:52;;;;;;;;;;;;;;;-1.49;70.26;98960.75;7387994;19;19918;-74
2023/02/28 03:25:18;;;;;;;;;;;;;;;-1.53;70.45;98961.78;7385094;19;19937;-73
2023/02/28 03:27:48;;;;;;;;;;;;;;;-1.53;70.14;98965.19;7392121;19;19922;-74
2023/02/28 03:30:22;;;;;;;;;;;;;;;-1.50;70.44;98964.22;7384989;19;19922;-74
2023/02/28 03:32:51;;;;;;;;;;;;;;;-1.40;69.80;98970.72;7388515;19;19929;-74
2023/02/28 03:35:22;;;;;;;;;;;;;;;-1.40;69.97;98961.16;7395359;19;19929;-71
2023/02/28 03:37:53;;;;;;;;;;;;;;;-1.42;70.01;98969.94;7389805;19;19990;-74
2023/02/28 03:40:20;;;;;;;;;;;;;;;-1.37;69.58;98958.47;7386857;19;20001;-72
2023/02/28 03:42:48;;;;;;;;;;;;;;;-1.34;69.79;98966.13;7389471;19;19925;-72
2023/02/28 03:45:18;;;;;;;;;;;;;;;-1.25;69.74;98967.44;7390660;19;19911;-72
2023/02/28 03:47:46;;;;;;;;;;;;;;;-1.26;69.54;98964.91;7390163;19;19919;-72
2023/02/28 03:50:17;;;;;;;;;;;;;;;-1.34;69.57;98960.91;7384420;19;19922;-74
2023/02/28 03:52:48;;;;;;;;;;;;;;;-1.33;69.49;98961.75;7391239;19;19914;-72
2023/02/28 03:55:15;;;;;;;;;;;;;;;-1.30;69.62;98958.19;7387829;19;20584;-72
2023/02/28 03:57:51;;;;;;;;;;;;;;;-1.25;69.95;98967.44;7389193;19;19918;-72
2023/02/28 04:00:18;;;;;;;;;;;;;;;-1.23;69.69;98965.63;7385838;19;20337;-72
2023/02/28 04:02:45;;;;;;;;;;;;;;;-1.29;69.61;98962.44;7390472;19;19947;-72
2023/02/28 04:05:12;;;;;;;;;;;;;;;-1.25;69.88;98962.25;7388241;19;19946;-72
2023/02/28 04:07:38;;;;;;;;;;;;;;;-1.21;69.70;98966.44;7391484;19;19911;-72
2023/02/28 04:10:05;;;;;;;;;;;;;;;-1.13;70.02;98960.91;7387765;19;19915;-72
2023/02/28 04:12:31;;;;;;;;;;;;;;;-1.11;69.69;98970.31;7390355;19;19922;-72
2023/02/28 04:14:58;;;;;;;;;;;;;;;-1.06;69.54;98969.25;7390632;19;19942;-72
2023/02/28 04:17:25;;;;;;;;;;;;;;;-1.12;69.46;98968.59;7389594;19;20387;-72
2023/02/28 04:19:51;;;;;;;;;;;;;;;-1.07;69.95;98972.75;7396122;19;19926;-72
2023/02/28 04:22:18;;;;;;;;;;;;;;;-1.03;69.97;98975.13;7390775;19;20307;-72
2023/02/28 04:24:44;;;;;;;;;;;;;;;-1.06;69.55;98977.03;7394716;19;19929;-72
2023/02/28 04:27:11;;;;;;;;;;;;;;;-1.02;69.88;98984.63;7390632;19;20695;-72
2023/02/28 04:29:38;;;;;;;;;;;;;;;-1.04;69.38;98973.44;7392997;19;19910;-72
2023/02/28 04:32:04;;;;;;;;;;;;;;;-1.06;69.65;98974.44;7389887;19;20523;-72
2023/02/28 04:34:32;;;;;;;;;;;;;;;-0.97;69.70;98972.28;7389461;19;19926;-73
2023/02/28 04:37:00;;;;;;;;;;;;;;;-0.88;69.98;98971.00;7388582;19;19915;-73
2023/02/28 04:39:42;;;;;;;;;;;;;;;-1.09;68.90;98967.63;7388086;19;19922;-73
2023/02/28 04:42:09;;;;;;;;;;;;;;;-1.00;69.48;98969.81;7384576;19;19932;-73
2023/02/28 04:44:35;;;;;;;;;;;;;;;-1.06;69.54;98961.44;7389316;19;19919;-73
2023/02/28 04:47:02;;;;;;;;;;;;;;;-1.01;69.47;98964.69;7387856;19;20338;-73
2023/02/28 04:49:29;;;;;;;;;;;;;;;-1.03;69.38;98964.75;7387996;19;20258;-73
2023/02/28 04:51:55;;;;;;;;;;;;;;;-1.01;69.53;98973.31;7390124;19;19926;-73
2023/02/28 04:54:22;;;;;;;;;;;;;;;-0.98;69.72;98965.38;7388077;19;20303;-72
2023/02/28 04:56:49;;;;;;;;;;;;;;;-0.95;69.65;98977.38;7388942;19;19914;-72
2023/02/28 04:59:16;;;;;;;;;;;;;;;-0.96;69.88;98971.34;7388318;19;19937;-72
2023/02/28 05:01:45;;;;;;;;;;;;;;;-1.01;69.85;98969.88;7390509;19;19934;-72
2023/02/28 05:04:12;;;;;;;;;;;;;;;-1.02;69.57;98974.22;7382049;19;19918;-73
2023/02/28 05:06:39;;;;;;;;;;;;;;;-0.96;69.90;98979.16;7390539;19;20358;-72
2023/02/28 05:09:05;;;;;;;;;;;;;;;-0.96;70.02;98978.31;7389294;19;20452;-72
2023/02/28 05:11:36;;;;;;;;;;;;;;;-0.89;69.29;98977.13;7388844;19;19938;-72
2023/02/28 05:14:03;;;;;;;;;;;;;;;-1.00;69.47;98981.94;7390861;19;19919;-73
2023/02/28 05:16:30;;;;;;;;;;;;;;;-0.96;69.61;98980.91;7387456;19;19922;-73
2023/02/28 05:18:57;;;;;;;;;;;;;;;-1.04;69.59;98983.00;7389897;19;20347;-73
2023/02/28 05:21:25;;;;;;;;;;;;;;;-0.89;69.99;98975.38;7387100;19;19927;-73
2023/02/28 05:23:52;;;;;;;;;;;;;;;-0.89;69.69;98975.38;7387532;19;19923;-73
2023/02/28 05:26:19;;;;;;;;;;;;;;;-0.83;69.62;98976.00;7385687;19;19918;-73
2023/02/28 05:28:45;;;;;;;;;;;;;;;-0.88;69.48;98976.22;7392642;19;19925;-73
2023/02/28 05:31:12;;;;;;;;;;;;;;;-0.74;70.00;98976.44;7385411;19;19943;-73
2023/02/28 05:33:39;;;;;;;;;;;;;;;-0.77;69.35;98976.56;7387638;19;20353;-73
2023/02/28 05:36:06;;;;;;;;;;;;;;;-0.86;69.35;98983.94;7386896;19;19914;-73
2023/02/28 05:38:33;;;;;;;;;;;;;;;-0.84;69.56;98985.56;7388612;19;19919;-72
2023/02/28 05:40:59;;;;;;;;;;;;;;;-0.76;69.49;98980.84;7387080;19;19914;-73
2023/02/28 05:43:26;;;;;;;;;;;;;;;-0.72;69.55;98981.53;7381772;19;19926;-73
2023/02/28 05:45:52;;;;;;;;;;;;;;;-0.67;69.25;98990.81;7387844;19;20351;-73
2023/02/28 05:48:19;;;;;;;;;;;;;;;-0.69;69.30;98991.78;7387683;19;19906;-73
2023/02/28 05:50:46;;;;;;;;;;;;;;;-0.69;69.33;98984.84;7388268;19;19930;-73
2023/02/28 05:53:12;;;;;;;;;;;;;;;-0.72;68.95;98984.97;7383303;19;19921;-73
2023/02/28 05:55:40;;;;;;;;;;;;;;;-0.75;68.61;98994.69;7389779;19;19930;-73
2023/02/28 05:58:07;;;;;;;;;;;;;;;-0.80;68.82;98994.03;7389185;19;19931;-73
2023/02/28 06:00:34;;;;;;;;;;;;;;;-0.81;68.75;98997.56;7386456;19;19918;-73
2023/02/28 06:03:01;;;;;;;;;;;;;;;-0.75;68.66;99002.47;7387436;19;19954;-73
2023/02/28 06:05:28;;;;;;;;;;;;;;;-0.74;69.01;98998.94;7384063;19;19922;-72
2023/02/28 06:07:55;;;;;;;;;;;;;;;-0.74;69.00;98997.22;7393429;19;19922;-72
2023/02/28 06:10:21;;;;;;;;;;;;;;;-0.70;69.10;99000.50;7383931;19;19914;-72
2023/02/28 06:12:48;;;;;;;;;;;;;;;-0.64;68.79;98996.78;7386009;19;19921;-72
2023/02/28 06:15:15;;;;;;;;;;;;;;;-0.62;68.95;98998.41;7383155;19;19919;-72
2023/02/28 06:17:42;;;;;;;;;;;;;;;-0.59;68.60;99002.63;7392572;19;19918;-72
2023/02/28 06:20:10;;;;;;;;;;;;;;;-0.60;68.45;99009.59;7396818;19;19927;-72
2023/02/28 06:22:37;;;;;;;;;;;;;;;-0.63;68.68;99004.53;7393043;19;19919;-72
2023/02/28 06:25:04;;;;;;;;;;;;;;;-0.48;68.96;99008.16;7394898;19;19928;-72
2023/02/28 06:27:31;;;;;;;;;;;;;;;-0.62;68.19;99007.97;7386286;19;20351;-72
2023/02/28 06:29:58;;;;;;;;;;;;;;;-0.58;68.31;99006.88;7389366;19;19914;-72
2023/02/28 06:32:24;;;;;;;;;;;;;;;-0.53;68.67;99017.91;7380469;19;19914;-72
2023/02/28 06:34:51;;;;;;;;;;;;;;;-0.59;67.99;99008.66;7391337;19;19933;-72
2023/02/28 06:37:17;;;;;;;;;;;;;;;-0.54;68.58;99008.44;7387683;19;19922;-72
2023/02/28 06:39:44;;;;;;;;;;;;;;;-0.46;68.38;99017.56;7391658;19;20262;-72
2023/02/28 06:42:11;;;;;;;;;;;;;;;-0.34;68.28;99012.72;7387777;19;19918;-72
2023/02/28 06:44:38;;;;;;;;;;;;;;;-0.33;68.11;99019.63;7392399;19;19926;-72
2023/02/28 06:47:05;;;;;;;;;;;;;;;-0.36;67.51;99028.41;7394872;19;19946;-72
2023/02/28 06:49:32;;;;;;;;;;;;;;;-0.39;67.30;99027.72;7389134;19;19914;-72
2023/02/28 06:51:59;;;;;;;;;;;;;;;-0.60;67.06;99027.78;7391126;19;19942;-72
2023/02/28 06:54:25;;;;;;;;;;;;;;;-0.51;68.18;99035.13;7388787;19;19925;-72
2023/02/28 06:56:54;;;;;;;;;;;;;;;-0.39;68.06;99035.50;7394662;19;19915;-72
2023/02/28 06:59:20;;;;;;;;;;;;;;;-0.38;67.79;99029.38;7389255;19;19943;-72
2023/02/28 07:01:47;;;;;;;;;;;;;;;-0.26;67.98;99032.25;7391284;19;19942;-72
2023/02/28 07:04:13;;;;;;;;;;;;;;;-0.41;67.08;99032.13;7387401;19;19918;-72
2023/02/28 07:06:40;;;;;;;;;;;;;;;-0.28;67.78;99039.28;7392312;19;20422;-72
2023/02/28 07:09:07;;;;;;;;;;;;;;;-0.24;67.53;99032.16;7392327;19;20292;-72
2023/02/28 07:11:33;;;;;;;;;;;;;;;-0.11;68.07;99038.47;7387159;19;19915;-72
2023/02/28 07:14:00;;;;;;;;;;;;;;;-0.09;67.20;99028.00;7389916;19;20288;-72
2023/02/28 07:16:27;;;;;;;;;;;;;;;-0.06;67.19;99033.91;7388727;19;19919;-72
2023/02/28 07:18:53;;;;;;;;;;;;;;;-0.10;66.72;99037.56;7392075;19;20263;-72
2023/02/28 07:21:20;;;;;;;;;;;;;;;0.03;67.11;99036.97;7390089;19;19922;-72
2023/02/28 07:23:47;;;;;;;;;;;;;;;-0.05;66.42;99046.00;7387920;19;19918;-72
2023/02/28 07:26:15;;;;;;;;;;;;;;;-0.02;66.71;99048.47;7388321;19;19914;-72
2023/02/28 07:28:42;;;;;;;;;;;;;;;0.01;66.41;99046.63;7392412;19;19938;-71
2023/02/28 07:31:09;;;;;;;;;;;;;;;0.04;67.03;99039.53;7390926;19;20276;-71
2023/02/28 07:33:36;;;;;;;;;;;;;;;0.09;66.80;99045.34;7387483;19;19933;-72
2023/02/28 07:36:07;;;;;;;;;;;;;;;0.01;66.13;99039.66;7391934;19;19934;-71
2023/02/28 07:38:35;;;;;;;;;;;;;;;0.07;66.30;99046.34;7387378;19;19918;-71
2023/02/28 07:41:04;;;;;;;;;;;;;;;-0.01;65.73;99047.53;7391537;19;19922;-72
2023/02/28 07:43:31;;;;;;;;;;;;;;;0.06;66.03;99049.88;7384772;19;19923;-72
2023/02/28 07:46:05;;;;;;;;;;;;;;;0.05;65.88;99046.38;7392377;19;19922;-72
2023/02/28 07:48:32;;;;;;;;;;;;;;;0.21;65.97;99051.69;7389590;19;19956;-74
2023/02/28 07:50:58;;;;;;;;;;;;;;;0.36;66.01;99047.53;7389772;19;19982;-71
2023/02/28 07:53:25;;;;;;;;;;;;;;;0.26;64.90;99056.69;7387039;19;19937;-72
2023/02/28 07:55:56;;;;;;;;;;;;;;;0.18;66.03;99049.25;7388987;19;19922;-72
2023/02/28 07:58:23;;;;;;;;;;;;;;;0.34;65.61;99049.34;7386885;19;19922;-72
2023/02/28 08:00:49;;;;;;;;;;;;;;;0.39;65.74;99052.56;7392241;19;19926;-72
2023/02/28 08:03:17;;;;;;;;;;;;;;;0.30;65.36;99046.06;7388255;19;20002;-72
2023/02/28 08:05:43;;;;;;;;;;;;;;;0.44;65.86;99051.44;7390998;19;19922;-72
2023/02/28 08:08:10;;;;;;;;;;;;;;;0.21;64.96;99052.56;7392045;19;19918;-72
2023/02/28 08:10:36;;;;;;;;;;;;;;;0.37;65.39;99063.06;7386861;19;19914;-72
2023/02/28 08:13:03;;;;;;;;;;;;;;;0.48;65.34;99059.13;7387596;19;19922;-72
2023/02/28 08:15:29;;;;;;;;;;;;;;;0.54;64.45;99048.38;7386119;19;19914;-71
2023/02/28 08:17:56;;;;;;;;;;;;;;;0.65;64.70;99054.72;7390673;19;19935;-72
2023/02/28 08:20:23;;;;;;;;;;;;;;;0.79;64.93;99054.06;7390111;19;19933;-71
2023/02/28 08:22:50;;;;;;;;;;;;;;;0.79;63.53;99055.78;7389307;19;19922;-72
2023/02/28 08:25:16;;;;;;;;;;;;;;;0.94;64.89;99055.03;7385377;19;19929;-71
2023/02/28 08:27:43;;;;;;;;;;;;;;;0.75;62.67;99055.13;7390241;19;20259;-71
2023/02/28 08:30:13;;;;;;;;;;;;;;;1.01;64.31;99066.81;7389211;19;19974;-71
2023/02/28 08:32:40;;;;;;;;;;;;;;;1.12;63.90;99062.81;7391511;19;19942;-70
2023/02/28 08:35:08;;;;;;;;;;;;;;;1.19;63.51;99062.44;7390953;19;19919;-71
2023/02/28 08:37:35;;;;;;;;;;;;;;;1.29;63.64;99070.59;7386804;19;20523;-72
2023/02/28 08:40:03;;;;;;;;;;;;;;;1.36;62.88;99065.91;7389193;19;19942;-72
2023/02/28 08:42:31;;;;;;;;;;;;;;;1.13;62.15;99065.31;7386658;19;19939;-72
2023/02/28 08:44:58;;;;;;;;;;;;;;;1.10;62.98;99057.69;7387936;19;19925;-71
2023/02/28 08:47:25;;;;;;;;;;;;;;;1.20;62.50;99058.88;7385390;19;19922;-71
2023/02/28 08:49:51;;;;;;;;;;;;;;;1.22;62.56;99071.84;7391064;19;19918;-72
2023/02/28 08:52:18;;;;;;;;;;;;;;;1.36;62.32;99066.75;7385512;19;19950;-72
2023/02/28 08:54:44;;;;;;;;;;;;;;;1.42;62.20;99065.56;7391411;19;19926;-72
2023/02/28 08:57:11;;;;;;;;;;;;;;;1.52;62.17;99065.00;7389451;19;20380;-71
2023/02/28 08:59:37;;;;;;;;;;;;;;;1.47;60.56;99067.00;7382079;19;19919;-71
2023/02/28 09:02:04;;;;;;;;;;;;;;;1.48;60.84;99070.47;7386895;19;20367;-71
2023/02/28 09:04:31;;;;;;;;;;;;;;;1.54;61.27;99075.38;7388166;19;19931;-72
2023/02/28 09:06:58;;;;;;;;;;;;;;;1.58;60.07;99068.22;7390469;19;20321;-71
2023/02/28 09:09:24;;;;;;;;;;;;;;;1.69;61.27;99081.53;7387714;19;19918;-71
2023/02/28 09:11:51;;;;;;;;;;;;;;;1.58;59.59;99069.06;7388688;19;19918;-71
2023/02/28 09:14:19;;;;;;;;;;;;;;;1.69;59.86;99064.13;7384664;19;19978;-72
2023/02/28 09:16:46;;;;;;;;;;;;;;;1.73;59.87;99068.22;7386097;19;19919;-71
2023/02/28 09:19:12;;;;;;;;;;;;;;;1.84;59.10;99064.19;7389005;19;19939;-71
2023/02/28 09:21:39;;;;;;;;;;;;;;;1.98;58.98;99062.53;7389288;19;20307;-71
2023/02/28 09:24:06;;;;;;;;;;;;;;;2.12;58.90;99066.97;7388837;19;19918;-71
2023/02/28 09:26:33;;;;;;;;;;;;;;;2.31;58.22;99071.16;7387131;19;19971;-71
2023/02/28 09:29:08;;;;;;;;;;;;;;;2.49;57.31;99072.72;7388009;19;19926;-71
2023/02/28 09:31:35;;;;;;;;;;;;;;;2.55;57.06;99069.75;7382603;19;19915;-71
2023/02/28 09:34:01;;;;;;;;;;;;;;;2.66;56.24;99079.59;7385199;19;19925;-71
2023/02/28 09:36:29;;;;;;;;;;;;;;;2.70;56.15;99077.66;7387037;19;19915;-71
2023/02/28 09:39:10;;;;;;;;;;;;;;;2.80;56.28;99073.56;7388839;19;19914;-71
2023/02/28 09:41:49;;;;;;;;;;;;;;;2.85;55.92;99084.59;7383520;19;19942;-71
2023/02/28 09:44:36;;;;;;;;;;;;;;;3.06;55.89;99080.72;7385468;19;19930;-71
2023/02/28 09:47:25;;;;;;;;;;;;;;;3.11;55.79;99080.44;7389519;19;19921;-71
2023/02/28 09:49:52;;;;;;;;;;;;;;;2.99;54.52;99087.22;7385529;19;19929;-71
2023/02/28 09:52:28;;;;;;;;;;;;;;;2.96;55.30;99083.97;7388647;19;19929;-71
2023/02/28 09:54:55;;;;;;;;;;;;;;;2.97;55.64;99077.78;7394096;19;19958;-71
2023/02/28 09:57:24;;;;;;;;;;;;;;;2.89;54.79;99083.47;7393071;19;19918;-71
2023/02/28 10:00:00;;;;;;;;;;;;;;;2.91;55.13;99079.00;7394934;19;19918;-71
2023/02/28 10:02:47;;;;;;;;;;;;;;;2.97;54.83;99091.69;7391767;19;19914;-71
2023/02/28 10:05:21;;;;;;;;;;;;;;;3.02;55.20;99081.81;7391874;19;19914;-71
2023/02/28 10:07:55;;;;;;;;;;;;;;;3.10;55.23;99085.75;7395500;19;19922;-71
2023/02/28 10:10:24;;;;;;;;;;;;;;;3.13;55.27;99085.56;7389786;19;19929;-71
2023/02/28 10:12:52;;;;;;;;;;;;;;;3.21;55.29;99086.81;7395183;19;19929;-71
2023/02/28 10:15:18;;;;;;;;;;;;;;;3.34;54.25;99092.13;7396254;19;19919;-71
2023/02/28 10:17:46;;;;;;;;;;;;;;;3.42;53.74;99097.75;7395494;19;20605;-72
2023/02/28 10:20:31;;;;;;;;;;;;;;;3.50;54.07;99098.13;7392079;19;19918;-72
2023/02/28 10:23:00;;;;;;;;;;;;;;;3.71;54.20;99092.50;7386096;19;19940;-71
2023/02/28 10:25:27;;;;;;;;;;;;;;;3.73;53.10;99095.88;7391346;19;20259;-71
2023/02/28 10:28:20;;;;;;;;;;;;;;;3.94;52.32;99102.38;7391359;19;19918;-71
2023/02/28 10:30:48;;;;;;;;;;;;;;;4.07;51.18;99101.63;7391491;19;20251;-71
2023/02/28 10:33:18;;;;;;;;;;;;;;;4.07;52.77;99101.63;7393288;19;19928;-71
2023/02/28 10:35:44;;;;;;;;;;;;;;;4.18;52.00;99097.38;7389717;19;19923;-71
2023/02/28 10:38:15;;;;;;;;;;;;;;;4.14;52.20;99100.28;7393913;19;19914;-71
2023/02/28 10:40:41;;;;;;;;;;;;;;;4.04;51.66;99101.81;7390925;19;19922;-71
2023/02/28 10:43:14;;;;;;;;;;;;;;;4.06;52.38;99105.19;7390521;19;19918;-72
2023/02/28 10:46:10;;;;;;;;;;;;;;;4.08;51.86;99109.38;7389134;19;19978;-71
2023/02/28 10:48:42;;;;;;;;;;;;;;;3.96;51.98;99102.28;7390657;19;20340;-71
2023/02/28 10:51:10;;;;;;;;;;;;;;;4.02;52.59;99099.28;7391392;19;19939;-71
2023/02/28 10:53:38;;;;;;;;;;;;;;;4.06;52.50;99099.94;7387106;19;19946;-71
2023/02/28 10:56:25;;;;;;;;;;;;;;;4.22;51.51;99084.94;7387011;19;20240;-71
2023/02/28 10:58:51;;;;;;;;;;;;;;;4.31;52.03;99089.56;7394821;19;19941;-71
2023/02/28 11:01:19;;;;;;;;;;;;;;;4.44;51.49;99087.00;7385897;19;19915;-71
2023/02/28 11:03:46;;;;;;;;;;;;;;;4.53;51.85;99085.56;7390552;19;19947;-71
2023/02/28 11:06:17;;;;;;;;;;;;;;;4.49;50.63;99094.56;7393976;19;19925;-71
2023/02/28 11:08:45;;;;;;;;;;;;;;;4.54;51.37;99087.25;7391817;19;19938;-71
2023/02/28 11:11:11;;;;;;;;;;;;;;;4.47;49.82;99081.56;7389953;19;19933;-71
2023/02/28 11:13:38;;;;;;;;;;;;;;;4.65;50.74;99076.06;7385396;19;20018;-71
2023/02/28 11:16:06;;;;;;;;;;;;;;;4.73;49.64;99073.78;7390127;19;19923;-70
2023/02/28 11:18:36;;;;;;;;;;;;;;;5.11;49.05;99072.97;7387971;19;19918;-70
2023/02/28 11:21:02;;;;;;;;;;;;;;;5.47;49.50;99061.75;7389799;19;21491;-70
2023/02/28 11:23:30;;;;;;;;;;;;;;;5.66;48.06;99062.16;7386790;19;19911;-71
2023/02/28 11:25:58;;;;;;;;;;;;;;;5.97;46.80;99064.41;7391732;19;19926;-70
2023/02/28 11:28:29;;;;;;;;;;;;;;;6.02;47.44;99062.31;7393422;19;20015;-71
2023/02/28 11:31:05;;;;;;;;;;;;;;;5.66;45.52;99059.53;7392215;19;20312;-70
2023/02/28 11:33:37;;;;;;;;;;;;;;;5.72;47.63;99064.34;7386182;19;19922;-70
2023/02/28 11:36:08;;;;;;;;;;;;;;;5.47;47.83;99053.88;7388431;19;19923;-70
2023/02/28 11:38:35;;;;;;;;;;;;;;;5.34;48.03;99053.88;7388975;19;19996;-70
2023/02/28 11:41:04;;;;;;;;;;;;;;;5.31;47.58;99054.09;7390992;19;19923;-73
2023/02/28 11:43:37;;;;;;;;;;;;;;;5.13;49.82;99061.44;7384613;19;20011;-73
2023/02/28 11:46:06;;;;;;;;;;;;;;;4.96;49.42;99053.88;7390753;19;19910;-73
2023/02/28 11:48:40;;;;;;;;;;;;;;;4.74;48.86;99055.34;7388365;19;19922;-72
2023/02/28 11:51:13;;;;;;;;;;;;;;;4.46;50.25;99055.47;7386175;19;19914;-73
2023/02/28 11:53:44;;;;;;;;;;;;;;;4.39;49.98;99061.09;7385947;19;19922;-72
2023/02/28 11:56:23;;;;;;;;;;;;;;;4.38;51.27;99059.41;7390232;19;20333;-73
2023/02/28 11:59:08;;;;;;;;;;;;;;;4.73;50.49;99058.88;7389501;19;20258;-72
2023/02/28 12:01:39;;;;;;;;;;;;;;;5.31;49.09;99053.25;7383619;19;19918;-72
2023/02/28 12:04:12;;;;;;;;;;;;;;;5.33;48.41;99054.00;7386897;19;19914;-72
2023/02/28 12:06:51;;;;;;;;;;;;;;;5.09;48.17;99046.03;7389462;19;19918;-70
2023/02/28 12:09:38;;;;;;;;;;;;;;;4.93;48.21;99052.31;7389274;19;19932;-69
2023/02/28 12:12:10;;;;;;;;;;;;;;;4.91;48.66;99045.50;7389000;19;19923;-70
2023/02/28 12:15:03;;;;;;;;;;;;;;;5.42;49.27;99045.47;7377614;19;19922;-71
2023/02/28 12:17:48;;;;;;;;;;;;;;;5.96;47.29;99045.19;7385384;19;19923;-71
2023/02/28 12:20:14;;;;;;;;;;;;;;;6.18;47.32;99043.66;7392790;19;19926;-71
2023/02/28 12:23:00;;;;;;;;;;;;;;;6.01;46.66;99043.09;7386410;19;19957;-71
2023/02/28 12:25:32;;;;;;;;;;;;;;;6.01;47.54;99043.09;7391290;19;19921;-71
2023/02/28 12:27:59;;;;;;;;;;;;;;;6.01;47.17;99035.19;7394301;19;19921;-71
2023/02/28 12:30:30;;;;;;;;;;;;;;;5.99;47.56;99033.63;7386064;19;19934;-71
2023/02/28 12:33:02;;;;;;;;;;;;;;;5.79;46.03;99033.22;7384463;19;20299;-72
2023/02/28 12:35:33;;;;;;;;;;;;;;;5.83;47.29;99029.44;7389931;19;19914;-70
2023/02/28 12:38:10;;;;;;;;;;;;;;;5.96;48.68;99024.19;7390692;19;19914;-71
2023/02/28 12:40:50;;;;;;;;;;;;;;;6.01;46.72;99027.31;7388819;19;19926;-71
2023/02/28 12:43:17;;;;;;;;;;;;;;;6.01;46.68;99023.88;7388743;19;20336;-71
2023/02/28 12:45:51;;;;;;;;;;;;;;;6.12;46.79;99016.03;7385988;19;19920;-71
2023/02/28 12:48:24;;;;;;;;;;;;;;;6.02;47.51;99017.66;7385769;19;20285;-71
2023/02/28 12:50:51;;;;;;;;;;;;;;;6.01;47.54;99015.97;7387003;19;20280;-71
2023/02/28 12:53:24;;;;;;;;;;;;;;;6.00;47.29;99003.78;7383335;19;20243;-71
2023/02/28 12:55:57;;;;;;;;;;;;;;;5.91;47.62;99007.88;7385914;19;19926;-70
2023/02/28 12:58:28;;;;;;;;;;;;;;;5.90;47.17;99003.59;7386322;19;19914;-71
2023/02/28 13:01:08;;;;;;;;;;;;;;;5.96;47.52;99003.19;7384343;19;20298;-71